createdAt,value
2018-06-30T00:00:27.259Z,25.80
2018-06-30T00:02:54.783Z,25.80
2018-06-30T00:05:22.323Z,25.80
2018-06-30T00:07:49.777Z,25.70
2018-06-30T00:10:25.351Z,25.70
2018-06-30T00:12:52.869Z,25.70
2018-06-30T00:15:20.331Z,25.70
2018-06-30T00:17:47.769Z,25.60
2018-06-30T00:20:15.247Z,25.60
2018-06-30T00:22:42.794Z,25.60
2018-06-30T00:25:10.424Z,25.60
2018-06-30T00:27:37.878Z,25.60
2018-06-30T00:30:05.617Z,25.60
2018-06-30T00:32:33.094Z,25.50
2018-06-30T00:35:00.581Z,25.50
2018-06-30T00:39:55.478Z,25.50
2018-06-30T00:42:22.939Z,25.40
2018-06-30T00:44:50.327Z,25.50
2018-06-30T00:47:17.754Z,25.40
2018-06-30T00:49:45.252Z,25.40
2018-06-30T00:52:12.719Z,25.30
2018-06-30T00:54:40.192Z,25.30
2018-06-30T00:57:07.694Z,25.30
2018-06-30T00:59:35.210Z,25.30
2018-06-30T01:02:02.824Z,25.30
2018-06-30T01:04:30.378Z,25.20
2018-06-30T01:06:57.915Z,25.20
2018-06-30T01:09:25.496Z,25.20
2018-06-30T01:11:53.005Z,25.10
2018-06-30T01:14:20.458Z,25.10
2018-06-30T01:16:48.045Z,25.10
2018-06-30T01:19:15.530Z,25.10
2018-06-30T01:21:43.058Z,25.10
2018-06-30T01:24:10.524Z,25.00
2018-06-30T01:26:38.081Z,25.00
2018-06-30T01:29:05.685Z,25.00
2018-06-30T01:31:33.183Z,25.00
2018-06-30T01:36:28.178Z,25.00
2018-06-30T01:38:55.613Z,24.90
2018-06-30T01:41:23.360Z,24.90
2018-06-30T01:43:50.839Z,24.90
2018-06-30T01:46:18.348Z,24.90
2018-06-30T01:48:45.862Z,24.80
2018-06-30T01:51:13.413Z,24.80
2018-06-30T01:53:40.923Z,24.80
2018-06-30T01:56:08.367Z,24.70
2018-06-30T01:58:36.011Z,24.70
2018-06-30T02:01:03.603Z,24.70
2018-06-30T02:03:31.053Z,24.60
2018-06-30T02:05:58.537Z,24.60
2018-06-30T02:08:26.199Z,24.60
2018-06-30T02:10:53.604Z,24.50
2018-06-30T02:13:21.067Z,24.50
2018-06-30T02:15:48.532Z,24.50
2018-06-30T02:18:16.071Z,24.50
2018-06-30T02:20:43.570Z,24.40
2018-06-30T02:23:11.039Z,24.40
2018-06-30T02:25:38.482Z,24.40
2018-06-30T02:28:06.094Z,24.30
2018-06-30T02:30:33.567Z,24.40
2018-06-30T02:33:01.024Z,24.30
2018-06-30T02:35:28.461Z,24.30
2018-06-30T02:37:56.023Z,24.30
2018-06-30T02:40:24.022Z,24.30
2018-06-30T02:42:51.525Z,24.30
2018-06-30T02:45:18.970Z,24.20
2018-06-30T02:47:46.519Z,24.20
2018-06-30T02:50:13.997Z,24.20
2018-06-30T02:52:41.455Z,24.10
2018-06-30T02:55:09.046Z,24.10
2018-06-30T02:57:36.567Z,24.10
2018-06-30T03:00:04.191Z,24.10
2018-06-30T03:02:31.648Z,24.10
2018-06-30T03:04:59.167Z,24.00
2018-06-30T03:07:26.990Z,24.00
2018-06-30T03:09:54.467Z,24.00
2018-06-30T03:12:21.954Z,24.00
2018-06-30T03:14:49.539Z,24.00
2018-06-30T03:17:16.992Z,23.90
2018-06-30T03:19:44.480Z,23.90
2018-06-30T03:22:11.978Z,23.90
2018-06-30T03:24:39.457Z,23.90
2018-06-30T03:27:06.953Z,23.90
2018-06-30T03:29:34.529Z,23.80
2018-06-30T03:32:02.039Z,23.80
2018-06-30T03:34:29.676Z,23.80
2018-06-30T03:36:57.211Z,23.80
2018-06-30T03:39:24.705Z,23.70
2018-06-30T03:41:52.265Z,23.70
2018-06-30T03:44:19.985Z,23.70
2018-06-30T03:46:47.571Z,23.70
2018-06-30T03:49:15.221Z,23.60
2018-06-30T03:51:42.674Z,23.60
2018-06-30T03:54:10.172Z,23.60
2018-06-30T03:56:37.657Z,23.60
2018-06-30T03:59:05.239Z,23.60
2018-06-30T04:01:32.758Z,23.60
2018-06-30T04:04:00.187Z,23.60
2018-06-30T04:06:27.636Z,23.60
2018-06-30T04:08:55.270Z,23.60
2018-06-30T04:11:22.766Z,23.50
2018-06-30T04:13:50.417Z,23.50
2018-06-30T04:16:18.025Z,23.50
2018-06-30T04:18:45.873Z,23.50
2018-06-30T04:21:13.423Z,23.50
2018-06-30T04:23:41.018Z,23.50
2018-06-30T04:26:08.600Z,23.50
2018-06-30T04:28:36.122Z,23.50
2018-06-30T04:31:03.823Z,23.50
2018-06-30T04:33:31.295Z,23.50
2018-06-30T04:35:58.821Z,23.50
2018-06-30T04:38:26.354Z,23.50
2018-06-30T04:43:21.349Z,23.50
2018-06-30T04:45:48.874Z,23.50
2018-06-30T04:48:16.566Z,23.60
2018-06-30T04:50:44.320Z,23.50
2018-06-30T04:53:11.893Z,23.60
2018-06-30T04:58:06.838Z,23.50
2018-06-30T05:00:34.490Z,23.60
2018-06-30T05:03:02.079Z,23.60
2018-06-30T05:05:29.581Z,23.60
2018-06-30T05:07:57.059Z,23.50
2018-06-30T05:10:24.517Z,23.50
2018-06-30T05:12:52.042Z,23.60
2018-06-30T05:15:19.566Z,23.50
2018-06-30T05:17:47.078Z,23.50
2018-06-30T05:20:14.564Z,23.60
2018-06-30T05:22:42.083Z,23.50
2018-06-30T05:25:09.662Z,23.50
2018-06-30T05:27:37.125Z,23.50
2018-06-30T05:30:05.157Z,23.50
2018-06-30T05:32:32.697Z,23.60
2018-06-30T05:35:00.355Z,23.60
2018-06-30T05:37:27.815Z,23.60
2018-06-30T05:39:55.308Z,23.60
2018-06-30T05:42:22.827Z,23.60
2018-06-30T05:44:50.472Z,23.60
2018-06-30T05:47:18.029Z,23.70
2018-06-30T05:49:45.513Z,23.70
2018-06-30T05:52:13.423Z,23.70
2018-06-30T05:54:41.327Z,23.70
2018-06-30T05:57:09.017Z,23.70
2018-06-30T05:59:37.261Z,23.80
2018-06-30T06:02:05.205Z,23.80
2018-06-30T06:04:32.681Z,23.80
2018-06-30T06:07:00.151Z,23.80
2018-06-30T06:09:27.653Z,23.80
2018-06-30T06:11:55.126Z,23.80
2018-06-30T06:14:22.651Z,23.90
2018-06-30T06:16:50.141Z,23.80
2018-06-30T06:19:17.729Z,23.90
2018-06-30T06:21:45.179Z,23.90
2018-06-30T06:24:12.725Z,23.90
2018-06-30T06:26:40.347Z,23.90
2018-06-30T06:29:07.758Z,23.90
2018-06-30T06:31:35.179Z,23.90
2018-06-30T06:34:02.868Z,24.00
2018-06-30T06:36:30.452Z,24.00
2018-06-30T06:38:57.985Z,24.00
2018-06-30T06:41:25.479Z,24.00
2018-06-30T06:43:52.970Z,24.00
2018-06-30T06:46:20.394Z,24.10
2018-06-30T06:48:47.930Z,24.10
2018-06-30T06:51:15.445Z,24.10
2018-06-30T06:56:10.440Z,24.10
2018-06-30T06:58:37.973Z,24.10
2018-06-30T07:01:05.419Z,24.10
2018-06-30T07:03:32.895Z,24.10
2018-06-30T07:06:00.483Z,24.10
2018-06-30T07:08:27.975Z,24.20
2018-06-30T07:10:55.507Z,24.20
2018-06-30T07:13:22.983Z,24.20
2018-06-30T07:15:50.610Z,24.30
2018-06-30T07:18:18.324Z,24.30
2018-06-30T07:20:45.928Z,24.30
2018-06-30T07:23:13.512Z,24.10
2018-06-30T07:25:41.046Z,24.30
2018-06-30T07:28:08.600Z,24.30
2018-06-30T07:30:36.683Z,24.40
2018-06-30T07:33:04.229Z,24.40
2018-06-30T07:35:31.902Z,24.40
2018-06-30T07:37:59.377Z,24.40
2018-06-30T07:40:26.854Z,24.40
2018-06-30T07:42:54.400Z,24.50
2018-06-30T07:45:23.077Z,24.50
2018-06-30T07:47:50.550Z,24.50
2018-06-30T07:50:18.182Z,24.50
2018-06-30T07:52:45.672Z,24.50
2018-06-30T07:55:13.345Z,24.50
2018-06-30T07:57:40.809Z,24.50
2018-06-30T08:00:08.256Z,24.60
2018-06-30T08:02:35.771Z,24.60
2018-06-30T08:05:03.706Z,24.60
2018-06-30T08:07:31.173Z,24.60
2018-06-30T08:09:58.651Z,24.70
2018-06-30T08:12:26.056Z,24.70
2018-06-30T08:14:53.542Z,24.70
2018-06-30T08:17:21.023Z,24.80
2018-06-30T08:19:48.770Z,24.70
2018-06-30T08:22:16.275Z,24.80
2018-06-30T08:24:43.840Z,24.80
2018-06-30T08:27:11.692Z,24.80
2018-06-30T08:29:40.177Z,24.80
2018-06-30T08:32:07.673Z,24.80
2018-06-30T08:34:35.131Z,24.80
2018-06-30T08:37:02.591Z,24.90
2018-06-30T08:39:29.957Z,24.90
2018-06-30T08:41:57.420Z,24.80
2018-06-30T08:44:25.090Z,24.90
2018-06-30T08:46:52.529Z,24.90
2018-06-30T08:49:19.987Z,24.90
2018-06-30T08:51:47.499Z,24.90
2018-06-30T08:54:15.040Z,24.90
2018-06-30T08:56:42.468Z,25.00
2018-06-30T08:59:09.989Z,25.00
2018-06-30T09:01:37.445Z,25.00
2018-06-30T09:04:05.138Z,25.00
2018-06-30T09:06:32.750Z,25.10
2018-06-30T09:09:00.115Z,25.10
2018-06-30T09:11:27.565Z,25.10
2018-06-30T09:13:55.051Z,25.10
2018-06-30T09:16:22.440Z,25.10
2018-06-30T09:18:49.912Z,25.20
2018-06-30T09:21:17.379Z,25.20
2018-06-30T09:23:44.791Z,25.20
2018-06-30T09:26:12.305Z,25.20
2018-06-30T09:31:07.253Z,25.20
2018-06-30T09:33:34.695Z,25.20
2018-06-30T09:36:02.259Z,25.30
2018-06-30T09:38:29.725Z,25.30
2018-06-30T09:40:57.143Z,25.30
2018-06-30T09:43:24.653Z,25.30
2018-06-30T09:45:52.149Z,25.30
2018-06-30T09:48:19.713Z,25.30
2018-06-30T09:50:47.249Z,25.40
2018-06-30T09:53:14.849Z,25.40
2018-06-30T09:55:42.353Z,25.40
2018-06-30T09:58:09.802Z,25.40
2018-06-30T10:00:43.033Z,25.50
2018-06-30T10:03:10.884Z,25.40
2018-06-30T10:05:38.555Z,25.50
2018-06-30T10:08:06.219Z,25.50
2018-06-30T10:10:33.734Z,25.50
2018-06-30T10:13:01.563Z,25.50
2018-06-30T10:15:29.066Z,25.50
2018-06-30T10:17:56.520Z,25.60
2018-06-30T10:20:23.958Z,25.60
2018-06-30T10:22:51.417Z,25.60
2018-06-30T10:25:18.937Z,25.60
2018-06-30T10:27:46.371Z,25.70
2018-06-30T10:30:13.884Z,25.70
2018-06-30T10:32:41.390Z,25.70
2018-06-30T10:35:08.805Z,25.70
2018-06-30T10:37:36.284Z,25.70
2018-06-30T10:40:04.483Z,25.70
2018-06-30T10:42:31.947Z,25.70
2018-06-30T10:44:59.531Z,25.80
2018-06-30T10:47:27.013Z,25.80
2018-06-30T10:49:54.457Z,25.80
2018-06-30T10:52:22.010Z,25.80
2018-06-30T10:54:49.486Z,25.80
2018-06-30T10:57:16.938Z,25.80
2018-06-30T10:59:44.423Z,25.90
2018-06-30T11:02:11.834Z,25.90
2018-06-30T11:04:39.317Z,25.90
2018-06-30T11:07:06.826Z,25.90
2018-06-30T11:09:34.356Z,25.90
2018-06-30T11:12:02.111Z,26.00
2018-06-30T11:14:29.731Z,25.90
2018-06-30T11:16:57.667Z,26.00
2018-06-30T11:19:25.410Z,26.00
2018-06-30T11:21:53.137Z,26.00
2018-06-30T11:24:20.862Z,26.10
2018-06-30T11:26:48.617Z,26.10
2018-06-30T11:29:16.148Z,26.10
2018-06-30T11:31:43.579Z,26.10
2018-06-30T11:34:10.999Z,26.10
2018-06-30T11:36:38.582Z,26.20
2018-06-30T11:39:08.929Z,26.20
2018-06-30T11:41:36.390Z,26.20
2018-06-30T11:44:04.106Z,26.30
2018-06-30T11:46:31.755Z,26.20
2018-06-30T11:48:59.291Z,26.20
2018-06-30T11:51:26.801Z,26.30
2018-06-30T11:53:54.273Z,26.30
2018-06-30T11:56:22.083Z,26.30
2018-06-30T11:58:49.551Z,26.30
2018-06-30T12:01:17.152Z,26.40
2018-06-30T12:03:44.649Z,26.40
2018-06-30T12:06:12.127Z,26.40
2018-06-30T12:11:07.254Z,26.50
2018-06-30T12:13:34.949Z,26.50
2018-06-30T12:16:03.233Z,26.50
2018-06-30T12:18:31.073Z,26.50
2018-06-30T12:20:58.598Z,26.60
2018-06-30T12:23:26.344Z,26.60
2018-06-30T12:25:53.865Z,26.60
2018-06-30T12:28:21.571Z,26.60
2018-06-30T12:30:49.044Z,26.70
2018-06-30T12:33:16.694Z,26.70
2018-06-30T12:35:44.185Z,26.70
2018-06-30T12:38:11.838Z,26.70
2018-06-30T12:40:39.318Z,26.80
2018-06-30T12:43:06.884Z,26.80
2018-06-30T12:45:34.416Z,26.80
2018-06-30T12:48:01.887Z,26.80
2018-06-30T12:50:29.577Z,26.90
2018-06-30T12:52:57.218Z,26.90
2018-06-30T12:55:24.878Z,26.90
2018-06-30T12:57:52.387Z,26.90
2018-06-30T13:00:20.149Z,27.00
2018-06-30T13:02:47.979Z,27.00
2018-06-30T13:05:15.674Z,27.00
2018-06-30T13:07:43.277Z,27.00
2018-06-30T13:10:10.918Z,27.00
2018-06-30T13:12:38.578Z,27.10
2018-06-30T13:15:06.146Z,27.10
2018-06-30T13:17:34.226Z,27.10
2018-06-30T13:20:02.819Z,27.20
2018-06-30T13:22:30.517Z,27.20
2018-06-30T13:24:58.139Z,27.20
2018-06-30T13:27:25.658Z,27.20
2018-06-30T13:29:53.229Z,27.30
2018-06-30T13:32:20.802Z,27.30
2018-06-30T13:34:50.181Z,27.10
2018-06-30T13:37:17.705Z,27.40
2018-06-30T13:39:45.283Z,27.40
2018-06-30T13:42:12.781Z,27.40
2018-06-30T13:44:40.291Z,27.50
2018-06-30T13:47:07.835Z,27.50
2018-06-30T13:49:35.565Z,27.50
2018-06-30T13:52:03.135Z,27.50
2018-06-30T13:54:30.631Z,27.60
2018-06-30T13:56:58.199Z,27.60
2018-06-30T13:59:25.686Z,27.70
2018-06-30T14:01:53.239Z,27.70
2018-06-30T14:04:21.317Z,27.70
2018-06-30T14:06:48.859Z,27.80
2018-06-30T14:09:16.394Z,27.70
2018-06-30T14:11:43.844Z,27.80
2018-06-30T14:14:11.597Z,27.90
2018-06-30T14:16:39.337Z,27.90
2018-06-30T14:19:07.013Z,28.00
2018-06-30T14:21:34.441Z,28.00
2018-06-30T14:24:02.028Z,28.00
2018-06-30T14:26:29.615Z,28.10
2018-06-30T14:28:57.950Z,28.10
2018-06-30T14:31:25.409Z,28.20
2018-06-30T14:33:52.946Z,28.30
2018-06-30T14:36:20.496Z,28.40
2018-06-30T14:38:47.914Z,28.50
2018-06-30T14:41:15.498Z,28.60
2018-06-30T14:43:43.088Z,28.70
2018-06-30T14:46:10.457Z,28.80
2018-06-30T14:48:37.954Z,28.90
2018-06-30T14:51:05.491Z,29.00
2018-06-30T14:53:33.025Z,29.20
2018-06-30T14:56:00.543Z,29.40
2018-06-30T14:58:28.043Z,29.60
2018-06-30T15:00:55.477Z,29.80
2018-06-30T15:03:22.954Z,30.00
2018-06-30T15:05:50.407Z,30.30
2018-06-30T15:08:17.913Z,30.50
2018-06-30T15:10:45.414Z,30.80
2018-06-30T15:13:13.085Z,31.20
2018-06-30T15:15:40.898Z,31.50
2018-06-30T15:18:08.497Z,31.90
2018-06-30T15:20:36.054Z,32.30
2018-06-30T15:23:03.684Z,32.70
2018-06-30T15:25:31.218Z,33.10
2018-06-30T15:27:58.737Z,33.60
2018-06-30T15:30:26.323Z,33.90
2018-06-30T15:32:54.785Z,34.10
2018-06-30T15:35:23.223Z,34.60
2018-06-30T15:37:50.782Z,35.10
2018-06-30T15:40:18.337Z,35.60
2018-06-30T15:42:45.836Z,35.90
2018-06-30T15:45:13.363Z,36.00
2018-06-30T15:47:40.928Z,36.10
2018-06-30T15:50:08.480Z,36.00
2018-06-30T15:52:35.926Z,35.70
2018-06-30T15:55:03.732Z,35.40
2018-06-30T15:57:31.202Z,35.00
2018-06-30T15:59:58.666Z,34.70
2018-06-30T16:02:26.099Z,34.40
2018-06-30T16:04:53.631Z,34.20
2018-06-30T16:07:21.081Z,34.10
2018-06-30T16:09:48.675Z,34.10
2018-06-30T16:12:16.183Z,34.10
2018-06-30T16:14:43.686Z,34.10
2018-06-30T16:17:11.123Z,34.10
2018-06-30T16:19:38.681Z,34.10
2018-06-30T16:22:06.345Z,34.10
2018-06-30T16:24:33.981Z,34.10
2018-06-30T16:27:01.507Z,34.00
2018-06-30T16:29:29.073Z,33.80
2018-06-30T16:31:57.942Z,33.70
2018-06-30T16:34:27.369Z,33.60
2018-06-30T16:36:55.049Z,33.40
2018-06-30T16:39:22.829Z,33.40
2018-06-30T16:41:50.649Z,33.20
2018-06-30T16:44:18.174Z,33.10
2018-06-30T16:46:45.743Z,33.00
2018-06-30T16:49:13.231Z,32.90
2018-06-30T16:51:40.642Z,32.80
2018-06-30T16:54:08.061Z,32.70
2018-06-30T16:56:35.593Z,32.60
2018-06-30T16:59:03.148Z,32.30
2018-06-30T17:01:30.643Z,32.20
2018-06-30T17:03:58.135Z,32.00
2018-06-30T17:06:26.111Z,31.80
2018-06-30T17:08:53.879Z,31.60
2018-06-30T17:11:21.747Z,31.40
2018-06-30T17:13:49.398Z,31.30
2018-06-30T17:16:16.889Z,31.10
2018-06-30T17:18:44.450Z,31.00
2018-06-30T17:21:11.969Z,30.80
2018-06-30T17:23:39.537Z,30.70
2018-06-30T17:26:07.174Z,30.60
2018-06-30T17:28:34.714Z,30.50
2018-06-30T17:31:02.417Z,30.40
2018-06-30T17:33:29.929Z,30.30
2018-06-30T17:35:57.425Z,30.30
2018-06-30T17:38:25.007Z,30.10
2018-06-30T17:40:52.492Z,30.10
2018-06-30T17:43:20.001Z,30.00
2018-06-30T17:45:47.541Z,29.90
2018-06-30T17:48:15.022Z,29.90
2018-06-30T17:50:42.871Z,29.80
2018-06-30T17:53:10.990Z,29.70
2018-06-30T17:58:06.387Z,29.50
2018-06-30T18:00:34.094Z,29.50
2018-06-30T18:03:01.970Z,29.40
2018-06-30T18:05:29.837Z,29.30
2018-06-30T18:07:57.319Z,29.30
2018-06-30T18:10:24.971Z,29.20
2018-06-30T18:12:52.679Z,29.20
2018-06-30T18:15:20.247Z,29.10
2018-06-30T18:17:47.950Z,29.10
2018-06-30T18:20:15.568Z,29.00
2018-06-30T18:22:43.317Z,29.00
2018-06-30T18:25:11.007Z,29.00
2018-06-30T18:27:38.767Z,28.90
2018-06-30T18:30:06.661Z,28.80
2018-06-30T18:32:34.577Z,28.80
2018-06-30T18:35:02.150Z,28.80
2018-06-30T18:37:29.658Z,28.70
2018-06-30T18:39:57.330Z,28.70
2018-06-30T18:42:24.867Z,28.70
2018-06-30T18:44:52.831Z,28.60
2018-06-30T18:47:20.461Z,28.60
2018-06-30T18:49:48.002Z,28.60
2018-06-30T18:52:15.818Z,28.60
2018-06-30T18:54:43.350Z,28.50
2018-06-30T18:57:11.010Z,28.50
2018-06-30T18:59:38.793Z,28.50
2018-06-30T19:02:06.276Z,28.50
2018-06-30T19:04:34.000Z,28.40
2018-06-30T19:07:01.530Z,28.40
2018-06-30T19:09:29.494Z,28.40
2018-06-30T19:11:57.055Z,28.30
2018-06-30T19:14:25.082Z,28.30
2018-06-30T19:16:52.688Z,28.30
2018-06-30T19:19:20.443Z,28.20
2018-06-30T19:21:48.014Z,28.20
2018-06-30T19:24:15.496Z,28.20
2018-06-30T19:26:42.987Z,28.10
2018-06-30T19:29:10.646Z,28.10
2018-06-30T19:31:38.170Z,28.10
2018-06-30T19:34:05.771Z,28.00
2018-06-30T19:36:33.373Z,28.00
2018-06-30T19:39:01.627Z,28.10
2018-06-30T19:41:29.568Z,28.00
2018-06-30T19:43:57.097Z,27.90
2018-06-30T19:46:24.894Z,27.90
2018-06-30T19:48:53.599Z,27.90
2018-06-30T19:51:21.392Z,27.90
2018-06-30T19:53:49.237Z,27.80
2018-06-30T19:56:16.687Z,27.80
2018-06-30T19:58:44.224Z,27.70
2018-06-30T20:01:12.247Z,27.70
2018-06-30T20:03:39.942Z,27.70
2018-06-30T20:06:07.630Z,27.60
2018-06-30T20:08:35.094Z,27.60
2018-06-30T20:11:02.611Z,27.50
2018-06-30T20:13:30.115Z,27.50
2018-06-30T20:15:57.679Z,27.50
2018-06-30T20:18:25.230Z,27.40
2018-06-30T20:20:52.664Z,27.40
2018-06-30T20:23:20.137Z,27.30
2018-06-30T20:25:47.611Z,27.30
2018-06-30T20:28:15.531Z,27.30
2018-06-30T20:30:43.045Z,27.30
2018-06-30T20:33:10.517Z,27.20
2018-06-30T20:35:38.269Z,27.20
2018-06-30T20:38:05.543Z,27.10
2018-06-30T20:43:00.677Z,27.00
2018-06-30T20:45:28.221Z,27.00
2018-06-30T20:47:55.789Z,26.90
2018-06-30T20:50:23.329Z,26.90
2018-06-30T20:52:50.853Z,26.90
2018-06-30T20:55:18.336Z,26.80
2018-06-30T20:57:45.847Z,26.80
2018-06-30T21:00:13.454Z,26.80
2018-06-30T21:02:40.930Z,26.80
2018-06-30T21:05:08.461Z,26.80
2018-06-30T21:07:35.979Z,26.70
2018-06-30T21:10:03.580Z,26.70
2018-06-30T21:12:31.158Z,26.70
2018-06-30T21:14:58.668Z,26.60
2018-06-30T21:17:26.233Z,26.60
2018-06-30T21:19:53.845Z,26.60
2018-06-30T21:22:21.258Z,26.50
2018-06-30T21:24:48.749Z,26.50
2018-06-30T21:27:16.208Z,26.50
2018-06-30T21:29:43.746Z,26.50
2018-06-30T21:32:11.313Z,26.40
2018-06-30T21:37:06.319Z,26.40
2018-06-30T21:39:33.828Z,26.40
2018-06-30T21:42:01.316Z,26.30
2018-06-30T21:44:28.782Z,26.30
2018-06-30T21:46:56.225Z,26.30
2018-06-30T21:49:23.794Z,26.30
2018-06-30T21:51:51.338Z,26.20
2018-06-30T21:54:18.798Z,26.20
2018-06-30T21:56:46.274Z,26.10
2018-06-30T21:59:13.704Z,26.10
2018-06-30T22:01:41.506Z,26.10
2018-06-30T22:04:09.107Z,26.10
2018-06-30T22:06:36.585Z,26.10
2018-06-30T22:09:06.831Z,26.00
2018-06-30T22:11:34.291Z,26.00
2018-06-30T22:14:01.844Z,26.00
2018-06-30T22:16:29.297Z,26.00
2018-06-30T22:18:56.791Z,25.90
2018-06-30T22:21:24.364Z,25.90
2018-06-30T22:23:51.817Z,25.90
2018-06-30T22:26:19.348Z,25.80
2018-06-30T22:28:46.933Z,25.70
2018-06-30T22:31:14.369Z,25.70
2018-06-30T22:33:41.825Z,25.70
2018-06-30T22:36:09.287Z,25.70
2018-06-30T22:38:36.808Z,25.70
2018-06-30T22:41:04.278Z,25.60
2018-06-30T22:43:31.787Z,25.60
2018-06-30T22:45:59.331Z,25.60
2018-06-30T22:48:26.920Z,25.50
2018-06-30T22:50:54.368Z,25.50
2018-06-30T22:53:21.836Z,25.50
2018-06-30T22:55:49.331Z,25.40
2018-06-30T22:58:16.846Z,25.40
2018-06-30T23:00:44.360Z,25.40
2018-06-30T23:03:12.230Z,25.30
2018-06-30T23:05:40.544Z,25.30
2018-06-30T23:08:08.222Z,25.30
2018-06-30T23:10:35.763Z,25.20
2018-06-30T23:13:03.334Z,25.20
2018-06-30T23:15:30.822Z,25.20
2018-06-30T23:17:58.256Z,25.10
2018-06-30T23:20:25.915Z,25.10
2018-06-30T23:25:26.647Z,25.00
2018-06-30T23:27:54.430Z,25.00
2018-06-30T23:30:22.642Z,25.00
2018-06-30T23:32:50.808Z,24.90
2018-06-30T23:35:18.555Z,24.90
2018-06-30T23:37:46.239Z,24.90
2018-06-30T23:40:13.777Z,24.80
2018-06-30T23:42:41.663Z,24.80
2018-06-30T23:45:09.222Z,24.80
2018-06-30T23:47:36.706Z,24.80
2018-06-30T23:50:04.466Z,24.80
2018-06-30T23:52:32.501Z,24.70
2018-06-30T23:55:06.964Z,24.70
2018-06-30T23:57:34.444Z,24.70
